Enderby Island, New Zealand
Current Conditions -  °F | °C
As of 2:00 PM on Friday 21 Nov 2014 (Local Time) from NZCH Reporting Station
Clear Clear  
Wind Chill: 77°   Ceiling: Unl
Heat Index: 78°   Visibility: 6mi
Dew Point: 45°   Wind: 23mph
Humidity: 32%   Direction: 310°NW
Pressure: 29.65"   Gusts: NA
Location:  50.5°S, 166.29°E
Report Text: NZCH 210200Z AUTO 31020KT 270V340 9999 NCD 25/07 Q1004 NOSIG
Loading
Personal Weather Stations






























Interactive Weather Map New forecast layout! Learn more

10-Day Weather Forecast

Advertisements
Track Severe Weather on mobile